sensor_id;sensor_type;location;lat;lon;timestamp;temperature;humidity
25440;DHT22;13365;52.208;5.488;2023-02-04T00:00:48;12.70;99.10
25440;DHT22;13365;52.208;5.488;2023-02-04T00:03:14;13.10;98.50
25440;DHT22;13365;52.208;5.488;2023-02-04T00:05:41;12.90;98.30
25440;DHT22;13365;52.208;5.488;2023-02-04T00:08:07;12.90;98.50
25440;DHT22;13365;52.208;5.488;2023-02-04T00:10:33;13.10;98.10
25440;DHT22;13365;52.208;5.488;2023-02-04T00:13:00;12.80;98.10
25440;DHT22;13365;52.208;5.488;2023-02-04T00:15:25;12.80;98.30
25440;DHT22;13365;52.208;5.488;2023-02-04T00:17:51;12.80;98.50
25440;DHT22;13365;52.208;5.488;2023-02-04T00:20:17;12.60;98.70
25440;DHT22;13365;52.208;5.488;2023-02-04T00:22:44;12.60;99.00
25440;DHT22;13365;52.208;5.488;2023-02-04T00:25:10;12.40;99.00
25440;DHT22;13365;52.208;5.488;2023-02-04T00:27:35;12.60;98.90
25440;DHT22;13365;52.208;5.488;2023-02-04T00:30:02;12.40;99.10
25440;DHT22;13365;52.208;5.488;2023-02-04T00:32:28;12.10;99.50
25440;DHT22;13365;52.208;5.488;2023-02-04T00:34:53;11.90;99.90
25440;DHT22;13365;52.208;5.488;2023-02-04T00:37:19;11.90;99.90
25440;DHT22;13365;52.208;5.488;2023-02-04T00:39:44;11.80;99.90
25440;DHT22;13365;52.208;5.488;2023-02-04T00:42:10;11.90;99.90
25440;DHT22;13365;52.208;5.488;2023-02-04T00:44:36;11.80;99.90
25440;DHT22;13365;52.208;5.488;2023-02-04T00:47:01;11.80;99.90
25440;DHT22;13365;52.208;5.488;2023-02-04T00:49:27;11.90;99.90
25440;DHT22;13365;52.208;5.488;2023-02-04T00:51:53;12.20;99.90
25440;DHT22;13365;52.208;5.488;2023-02-04T00:54:18;12.10;99.90
25440;DHT22;13365;52.208;5.488;2023-02-04T00:56:44;12.00;99.90
25440;DHT22;13365;52.208;5.488;2023-02-04T00:59:10;12.30;99.90
25440;DHT22;13365;52.208;5.488;2023-02-04T01:01:36;12.10;99.90
25440;DHT22;13365;52.208;5.488;2023-02-04T01:04:01;11.90;99.90
25440;DHT22;13365;52.208;5.488;2023-02-04T01:06:27;12.00;99.90
25440;DHT22;13365;52.208;5.488;2023-02-04T01:08:53;12.00;99.90
25440;DHT22;13365;52.208;5.488;2023-02-04T01:11:18;12.00;99.90
25440;DHT22;13365;52.208;5.488;2023-02-04T01:13:44;12.10;99.90
25440;DHT22;13365;52.208;5.488;2023-02-04T01:16:11;12.30;99.90
25440;DHT22;13365;52.208;5.488;2023-02-04T01:18:37;12.40;99.90
25440;DHT22;13365;52.208;5.488;2023-02-04T01:21:02;12.50;99.90
25440;DHT22;13365;52.208;5.488;2023-02-04T01:23:28;12.40;99.90
25440;DHT22;13365;52.208;5.488;2023-02-04T01:25:54;12.30;99.90
25440;DHT22;13365;52.208;5.488;2023-02-04T01:28:20;12.10;99.90
25440;DHT22;13365;52.208;5.488;2023-02-04T01:30:46;12.20;99.90
25440;DHT22;13365;52.208;5.488;2023-02-04T01:33:11;12.10;99.90
25440;DHT22;13365;52.208;5.488;2023-02-04T01:35:37;12.10;99.90
25440;DHT22;13365;52.208;5.488;2023-02-04T01:38:02;12.10;99.90
25440;DHT22;13365;52.208;5.488;2023-02-04T01:40:28;12.20;99.90
25440;DHT22;13365;52.208;5.488;2023-02-04T01:42:54;12.20;99.90
25440;DHT22;13365;52.208;5.488;2023-02-04T01:45:19;12.20;99.90
25440;DHT22;13365;52.208;5.488;2023-02-04T01:47:46;12.40;99.90
25440;DHT22;13365;52.208;5.488;2023-02-04T01:50:13;12.70;99.90
25440;DHT22;13365;52.208;5.488;2023-02-04T01:52:40;12.80;99.90
25440;DHT22;13365;52.208;5.488;2023-02-04T01:55:13;13.00;99.70
25440;DHT22;13365;52.208;5.488;2023-02-04T01:57:40;12.80;99.20
25440;DHT22;13365;52.208;5.488;2023-02-04T02:00:11;12.70;99.80
25440;DHT22;13365;52.208;5.488;2023-02-04T02:02:45;12.50;99.90
25440;DHT22;13365;52.208;5.488;2023-02-04T02:05:18;12.30;99.90
25440;DHT22;13365;52.208;5.488;2023-02-04T02:07:46;12.10;99.90
25440;DHT22;13365;52.208;5.488;2023-02-04T02:10:12;12.00;99.90
25440;DHT22;13365;52.208;5.488;2023-02-04T02:12:39;12.00;99.90
25440;DHT22;13365;52.208;5.488;2023-02-04T02:15:05;11.90;99.90
25440;DHT22;13365;52.208;5.488;2023-02-04T02:17:31;11.70;99.90
25440;DHT22;13365;52.208;5.488;2023-02-04T02:19:58;11.40;99.90
25440;DHT22;13365;52.208;5.488;2023-02-04T02:22:41;11.50;99.90
25440;DHT22;13365;52.208;5.488;2023-02-04T02:25:10;11.60;99.90
25440;DHT22;13365;52.208;5.488;2023-02-04T02:27:35;11.50;99.90
25440;DHT22;13365;52.208;5.488;2023-02-04T02:30:01;11.30;99.90
25440;DHT22;13365;52.208;5.488;2023-02-04T02:32:27;11.50;99.90
25440;DHT22;13365;52.208;5.488;2023-02-04T02:34:53;12.10;99.90
25440;DHT22;13365;52.208;5.488;2023-02-04T02:37:18;12.30;99.90
25440;DHT22;13365;52.208;5.488;2023-02-04T02:39:44;12.40;99.90
25440;DHT22;13365;52.208;5.488;2023-02-04T02:42:12;12.20;99.90
25440;DHT22;13365;52.208;5.488;2023-02-04T02:44:39;12.10;99.90
25440;DHT22;13365;52.208;5.488;2023-02-04T02:47:05;12.10;99.90
25440;DHT22;13365;52.208;5.488;2023-02-04T02:49:31;11.90;99.90
25440;DHT22;13365;52.208;5.488;2023-02-04T02:51:57;11.80;99.90
25440;DHT22;13365;52.208;5.488;2023-02-04T02:54:25;11.70;99.90
25440;DHT22;13365;52.208;5.488;2023-02-04T02:56:52;12.00;99.90
25440;DHT22;13365;52.208;5.488;2023-02-04T02:59:18;12.10;99.90
25440;DHT22;13365;52.208;5.488;2023-02-04T03:01:47;12.20;99.90
25440;DHT22;13365;52.208;5.488;2023-02-04T03:04:16;11.90;99.90
25440;DHT22;13365;52.208;5.488;2023-02-04T03:06:42;11.60;99.90
25440;DHT22;13365;52.208;5.488;2023-02-04T03:09:07;11.30;99.90
25440;DHT22;13365;52.208;5.488;2023-02-04T03:11:33;11.10;99.90
25440;DHT22;13365;52.208;5.488;2023-02-04T03:13:59;11.10;99.90
25440;DHT22;13365;52.208;5.488;2023-02-04T03:16:29;11.20;99.90
25440;DHT22;13365;52.208;5.488;2023-02-04T03:19:00;11.40;99.90
25440;DHT22;13365;52.208;5.488;2023-02-04T03:21:27;11.60;99.90
25440;DHT22;13365;52.208;5.488;2023-02-04T03:23:53;11.60;99.90
25440;DHT22;13365;52.208;5.488;2023-02-04T03:26:22;11.60;99.90
25440;DHT22;13365;52.208;5.488;2023-02-04T03:28:48;11.60;99.90
25440;DHT22;13365;52.208;5.488;2023-02-04T03:31:13;11.60;99.90
25440;DHT22;13365;52.208;5.488;2023-02-04T03:33:39;12.00;99.90
25440;DHT22;13365;52.208;5.488;2023-02-04T03:36:04;12.10;99.90
25440;DHT22;13365;52.208;5.488;2023-02-04T03:38:30;12.10;99.90
25440;DHT22;13365;52.208;5.488;2023-02-04T03:40:58;11.90;99.90
25440;DHT22;13365;52.208;5.488;2023-02-04T03:43:23;12.10;99.90
25440;DHT22;13365;52.208;5.488;2023-02-04T03:45:49;12.10;99.90
25440;DHT22;13365;52.208;5.488;2023-02-04T03:48:14;11.60;99.90
25440;DHT22;13365;52.208;5.488;2023-02-04T03:50:40;11.30;99.90
25440;DHT22;13365;52.208;5.488;2023-02-04T03:53:06;11.30;99.90
25440;DHT22;13365;52.208;5.488;2023-02-04T03:55:31;11.30;99.90
25440;DHT22;13365;52.208;5.488;2023-02-04T03:57:57;11.20;99.90
25440;DHT22;13365;52.208;5.488;2023-02-04T04:00:23;11.30;99.90
25440;DHT22;13365;52.208;5.488;2023-02-04T04:02:49;11.50;99.90
25440;DHT22;13365;52.208;5.488;2023-02-04T04:05:15;11.40;99.90
25440;DHT22;13365;52.208;5.488;2023-02-04T04:07:40;11.60;99.90
25440;DHT22;13365;52.208;5.488;2023-02-04T04:10:06;11.60;99.90
25440;DHT22;13365;52.208;5.488;2023-02-04T04:12:32;11.60;99.90
25440;DHT22;13365;52.208;5.488;2023-02-04T04:14:57;11.50;99.90
25440;DHT22;13365;52.208;5.488;2023-02-04T04:17:23;11.90;99.90
25440;DHT22;13365;52.208;5.488;2023-02-04T04:19:48;12.00;99.90
25440;DHT22;13365;52.208;5.488;2023-02-04T04:22:14;12.10;99.90
25440;DHT22;13365;52.208;5.488;2023-02-04T04:24:40;12.20;99.90
25440;DHT22;13365;52.208;5.488;2023-02-04T04:27:06;12.30;99.90
25440;DHT22;13365;52.208;5.488;2023-02-04T04:29:32;12.20;99.90
25440;DHT22;13365;52.208;5.488;2023-02-04T04:31:57;12.10;99.90
25440;DHT22;13365;52.208;5.488;2023-02-04T04:34:23;12.40;99.90
25440;DHT22;13365;52.208;5.488;2023-02-04T04:36:48;12.40;99.90
25440;DHT22;13365;52.208;5.488;2023-02-04T04:39:14;12.50;99.90
25440;DHT22;13365;52.208;5.488;2023-02-04T04:41:39;12.30;99.90
25440;DHT22;13365;52.208;5.488;2023-02-04T04:44:05;12.20;99.90
25440;DHT22;13365;52.208;5.488;2023-02-04T04:46:31;12.50;99.90
25440;DHT22;13365;52.208;5.488;2023-02-04T04:48:56;12.50;99.80
25440;DHT22;13365;52.208;5.488;2023-02-04T04:51:22;12.40;99.80
25440;DHT22;13365;52.208;5.488;2023-02-04T04:53:48;12.40;99.80
25440;DHT22;13365;52.208;5.488;2023-02-04T04:56:13;12.50;99.50
25440;DHT22;13365;52.208;5.488;2023-02-04T04:58:39;12.50;99.40
25440;DHT22;13365;52.208;5.488;2023-02-04T05:01:04;12.40;99.30
25440;DHT22;13365;52.208;5.488;2023-02-04T05:03:30;12.40;99.20
25440;DHT22;13365;52.208;5.488;2023-02-04T05:05:55;12.20;99.30
25440;DHT22;13365;52.208;5.488;2023-02-04T05:08:21;12.30;99.30
25440;DHT22;13365;52.208;5.488;2023-02-04T05:10:46;12.30;99.10
25440;DHT22;13365;52.208;5.488;2023-02-04T05:13:12;12.00;99.00
25440;DHT22;13365;52.208;5.488;2023-02-04T05:15:38;11.90;99.30
25440;DHT22;13365;52.208;5.488;2023-02-04T05:18:03;11.90;99.50
25440;DHT22;13365;52.208;5.488;2023-02-04T05:20:29;12.10;99.30
25440;DHT22;13365;52.208;5.488;2023-02-04T05:22:55;12.30;98.50
25440;DHT22;13365;52.208;5.488;2023-02-04T05:25:21;12.20;98.20
25440;DHT22;13365;52.208;5.488;2023-02-04T05:27:47;12.10;98.30
25440;DHT22;13365;52.208;5.488;2023-02-04T05:30:13;12.10;98.40
25440;DHT22;13365;52.208;5.488;2023-02-04T05:32:39;12.00;98.20
25440;DHT22;13365;52.208;5.488;2023-02-04T05:35:05;11.80;98.20
25440;DHT22;13365;52.208;5.488;2023-02-04T05:37:31;11.90;98.40
25440;DHT22;13365;52.208;5.488;2023-02-04T05:39:57;11.90;98.10
25440;DHT22;13365;52.208;5.488;2023-02-04T05:42:22;11.90;97.90
25440;DHT22;13365;52.208;5.488;2023-02-04T05:44:48;11.90;97.70
25440;DHT22;13365;52.208;5.488;2023-02-04T05:47:14;11.80;97.60
25440;DHT22;13365;52.208;5.488;2023-02-04T05:49:39;11.70;97.70
25440;DHT22;13365;52.208;5.488;2023-02-04T05:52:05;11.70;97.70
25440;DHT22;13365;52.208;5.488;2023-02-04T05:54:31;11.70;98.00
25440;DHT22;13365;52.208;5.488;2023-02-04T05:56:56;11.60;97.90
25440;DHT22;13365;52.208;5.488;2023-02-04T05:59:22;11.50;98.20
25440;DHT22;13365;52.208;5.488;2023-02-04T06:01:47;11.60;98.20
25440;DHT22;13365;52.208;5.488;2023-02-04T06:04:13;11.50;98.00
25440;DHT22;13365;52.208;5.488;2023-02-04T06:06:41;11.60;98.50
25440;DHT22;13365;52.208;5.488;2023-02-04T06:09:06;11.70;98.20
25440;DHT22;13365;52.208;5.488;2023-02-04T06:11:32;11.70;98.10
25440;DHT22;13365;52.208;5.488;2023-02-04T06:13:57;11.70;98.20
25440;DHT22;13365;52.208;5.488;2023-02-04T06:16:23;11.80;98.30
25440;DHT22;13365;52.208;5.488;2023-02-04T06:18:49;11.80;98.30
25440;DHT22;13365;52.208;5.488;2023-02-04T06:21:14;11.90;98.20
25440;DHT22;13365;52.208;5.488;2023-02-04T06:23:40;11.70;98.20
25440;DHT22;13365;52.208;5.488;2023-02-04T06:26:05;11.60;98.70
25440;DHT22;13365;52.208;5.488;2023-02-04T06:28:31;11.80;98.80
25440;DHT22;13365;52.208;5.488;2023-02-04T06:30:56;11.60;98.70
25440;DHT22;13365;52.208;5.488;2023-02-04T06:33:22;11.50;99.20
25440;DHT22;13365;52.208;5.488;2023-02-04T06:35:49;11.70;99.20
25440;DHT22;13365;52.208;5.488;2023-02-04T06:38:14;12.00;98.90
25440;DHT22;13365;52.208;5.488;2023-02-04T06:40:40;11.70;98.70
25440;DHT22;13365;52.208;5.488;2023-02-04T06:43:05;11.90;99.20
25440;DHT22;13365;52.208;5.488;2023-02-04T06:45:31;11.80;98.90
25440;DHT22;13365;52.208;5.488;2023-02-04T06:47:56;11.90;99.20
25440;DHT22;13365;52.208;5.488;2023-02-04T06:50:22;11.90;99.30
25440;DHT22;13365;52.208;5.488;2023-02-04T06:52:48;12.10;99.30
25440;DHT22;13365;52.208;5.488;2023-02-04T06:55:14;12.20;99.10
25440;DHT22;13365;52.208;5.488;2023-02-04T06:57:41;12.10;99.00
25440;DHT22;13365;52.208;5.488;2023-02-04T07:00:08;11.90;99.30
25440;DHT22;13365;52.208;5.488;2023-02-04T07:02:34;11.80;99.50
25440;DHT22;13365;52.208;5.488;2023-02-04T07:05:01;11.90;99.80
25440;DHT22;13365;52.208;5.488;2023-02-04T07:07:26;11.90;99.80
25440;DHT22;13365;52.208;5.488;2023-02-04T07:09:52;12.00;99.70
25440;DHT22;13365;52.208;5.488;2023-02-04T07:12:18;12.00;99.70
25440;DHT22;13365;52.208;5.488;2023-02-04T07:14:44;11.90;99.70
25440;DHT22;13365;52.208;5.488;2023-02-04T07:17:09;12.20;99.70
25440;DHT22;13365;52.208;5.488;2023-02-04T07:19:35;12.30;99.40
25440;DHT22;13365;52.208;5.488;2023-02-04T07:22:01;12.30;99.10
25440;DHT22;13365;52.208;5.488;2023-02-04T07:24:27;12.30;99.00
25440;DHT22;13365;52.208;5.488;2023-02-04T07:26:52;12.30;99.00
25440;DHT22;13365;52.208;5.488;2023-02-04T07:29:18;12.30;98.90
25440;DHT22;13365;52.208;5.488;2023-02-04T07:31:44;12.30;99.00
25440;DHT22;13365;52.208;5.488;2023-02-04T07:34:14;12.40;98.80
25440;DHT22;13365;52.208;5.488;2023-02-04T07:36:40;12.30;98.90
25440;DHT22;13365;52.208;5.488;2023-02-04T07:39:06;12.30;99.10
25440;DHT22;13365;52.208;5.488;2023-02-04T07:41:32;12.40;99.20
25440;DHT22;13365;52.208;5.488;2023-02-04T07:43:58;12.40;99.10
25440;DHT22;13365;52.208;5.488;2023-02-04T07:46:25;12.30;99.20
25440;DHT22;13365;52.208;5.488;2023-02-04T07:48:51;12.00;99.50
25440;DHT22;13365;52.208;5.488;2023-02-04T07:51:16;12.10;99.90
25440;DHT22;13365;52.208;5.488;2023-02-04T07:53:42;12.20;99.90
25440;DHT22;13365;52.208;5.488;2023-02-04T07:56:07;12.50;99.90
25440;DHT22;13365;52.208;5.488;2023-02-04T07:58:33;12.70;99.90
25440;DHT22;13365;52.208;5.488;2023-02-04T08:00:58;12.70;99.90
25440;DHT22;13365;52.208;5.488;2023-02-04T08:03:25;12.80;99.90
25440;DHT22;13365;52.208;5.488;2023-02-04T08:05:51;12.90;99.90
25440;DHT22;13365;52.208;5.488;2023-02-04T08:08:16;13.10;99.90
25440;DHT22;13365;52.208;5.488;2023-02-04T08:10:42;13.20;99.70
25440;DHT22;13365;52.208;5.488;2023-02-04T08:13:09;13.30;99.60
25440;DHT22;13365;52.208;5.488;2023-02-04T08:15:35;13.30;99.50
25440;DHT22;13365;52.208;5.488;2023-02-04T08:18:00;13.40;99.60
25440;DHT22;13365;52.208;5.488;2023-02-04T08:20:26;13.50;99.50
25440;DHT22;13365;52.208;5.488;2023-02-04T08:22:52;13.60;99.40
25440;DHT22;13365;52.208;5.488;2023-02-04T08:25:17;13.60;99.40
25440;DHT22;13365;52.208;5.488;2023-02-04T08:27:43;13.70;99.40
25440;DHT22;13365;52.208;5.488;2023-02-04T08:30:09;13.80;99.40
25440;DHT22;13365;52.208;5.488;2023-02-04T08:32:35;13.80;99.20
25440;DHT22;13365;52.208;5.488;2023-02-04T08:35:00;13.70;99.30
25440;DHT22;13365;52.208;5.488;2023-02-04T08:37:26;13.50;99.10
25440;DHT22;13365;52.208;5.488;2023-02-04T08:39:52;13.40;99.20
25440;DHT22;13365;52.208;5.488;2023-02-04T08:42:17;13.30;99.20
25440;DHT22;13365;52.208;5.488;2023-02-04T08:44:43;13.30;99.40
25440;DHT22;13365;52.208;5.488;2023-02-04T08:47:09;13.10;99.50
25440;DHT22;13365;52.208;5.488;2023-02-04T08:49:35;13.20;99.80
25440;DHT22;13365;52.208;5.488;2023-02-04T08:52:01;13.40;99.90
25440;DHT22;13365;52.208;5.488;2023-02-04T08:54:28;13.70;99.70
25440;DHT22;13365;52.208;5.488;2023-02-04T08:56:54;13.70;99.50
25440;DHT22;13365;52.208;5.488;2023-02-04T08:59:19;13.70;99.60
25440;DHT22;13365;52.208;5.488;2023-02-04T09:01:47;13.90;99.40
25440;DHT22;13365;52.208;5.488;2023-02-04T09:04:14;14.00;99.10
25440;DHT22;13365;52.208;5.488;2023-02-04T09:06:40;13.80;99.20
25440;DHT22;13365;52.208;5.488;2023-02-04T09:09:05;14.00;99.40
25440;DHT22;13365;52.208;5.488;2023-02-04T09:11:32;14.00;99.50
25440;DHT22;13365;52.208;5.488;2023-02-04T09:13:58;14.10;99.20
25440;DHT22;13365;52.208;5.488;2023-02-04T09:16:23;14.10;99.00
25440;DHT22;13365;52.208;5.488;2023-02-04T09:18:49;14.00;98.80
25440;DHT22;13365;52.208;5.488;2023-02-04T09:21:14;14.00;99.20
25440;DHT22;13365;52.208;5.488;2023-02-04T09:23:40;14.10;99.20
25440;DHT22;13365;52.208;5.488;2023-02-04T09:26:05;14.40;98.90
25440;DHT22;13365;52.208;5.488;2023-02-04T09:28:31;14.60;98.60
25440;DHT22;13365;52.208;5.488;2023-02-04T09:30:57;14.20;98.30
25440;DHT22;13365;52.208;5.488;2023-02-04T09:33:23;14.20;98.80
25440;DHT22;13365;52.208;5.488;2023-02-04T09:35:48;14.30;98.40
25440;DHT22;13365;52.208;5.488;2023-02-04T09:38:14;14.30;98.60
25440;DHT22;13365;52.208;5.488;2023-02-04T09:40:50;14.30;98.70
25440;DHT22;13365;52.208;5.488;2023-02-04T09:43:21;14.40;98.50
25440;DHT22;13365;52.208;5.488;2023-02-04T09:45:50;14.70;98.40
25440;DHT22;13365;52.208;5.488;2023-02-04T09:48:16;14.60;98.00
25440;DHT22;13365;52.208;5.488;2023-02-04T09:50:42;14.60;98.10
25440;DHT22;13365;52.208;5.488;2023-02-04T09:53:13;14.60;98.10
25440;DHT22;13365;52.208;5.488;2023-02-04T09:55:43;14.90;97.90
25440;DHT22;13365;52.208;5.488;2023-02-04T09:58:15;14.90;97.80
25440;DHT22;13365;52.208;5.488;2023-02-04T10:00:45;15.20;97.30
25440;DHT22;13365;52.208;5.488;2023-02-04T10:03:15;15.20;97.00
25440;DHT22;13365;52.208;5.488;2023-02-04T10:05:41;15.20;96.90
25440;DHT22;13365;52.208;5.488;2023-02-04T10:08:12;14.80;97.20
25440;DHT22;13365;52.208;5.488;2023-02-04T10:10:38;14.90;97.20
25440;DHT22;13365;52.208;5.488;2023-02-04T10:13:04;14.80;97.40
25440;DHT22;13365;52.208;5.488;2023-02-04T10:15:30;14.60;97.40
25440;DHT22;13365;52.208;5.488;2023-02-04T10:18:05;14.70;97.20
25440;DHT22;13365;52.208;5.488;2023-02-04T10:20:31;14.60;97.30
25440;DHT22;13365;52.208;5.488;2023-02-04T10:22:57;14.40;97.10
25440;DHT22;13365;52.208;5.488;2023-02-04T10:25:24;14.70;97.20
25440;DHT22;13365;52.208;5.488;2023-02-04T10:27:55;14.90;97.20
25440;DHT22;13365;52.208;5.488;2023-02-04T10:30:28;15.10;96.40
25440;DHT22;13365;52.208;5.488;2023-02-04T10:32:59;15.10;96.30
25440;DHT22;13365;52.208;5.488;2023-02-04T10:35:46;15.00;96.10
25440;DHT22;13365;52.208;5.488;2023-02-04T10:38:12;14.80;97.00
25440;DHT22;13365;52.208;5.488;2023-02-04T10:40:38;15.10;96.90
25440;DHT22;13365;52.208;5.488;2023-02-04T10:43:13;15.10;96.10
25440;DHT22;13365;52.208;5.488;2023-02-04T10:45:44;15.50;95.60
25440;DHT22;13365;52.208;5.488;2023-02-04T10:48:18;15.50;95.60
25440;DHT22;13365;52.208;5.488;2023-02-04T10:50:45;15.30;96.00
25440;DHT22;13365;52.208;5.488;2023-02-04T10:53:15;15.30;95.50
25440;DHT22;13365;52.208;5.488;2023-02-04T10:55:59;15.70;95.30
25440;DHT22;13365;52.208;5.488;2023-02-04T10:58:29;15.50;95.00
25440;DHT22;13365;52.208;5.488;2023-02-04T11:00:55;15.80;95.20
25440;DHT22;13365;52.208;5.488;2023-02-04T11:03:26;15.90;95.00
25440;DHT22;13365;52.208;5.488;2023-02-04T11:05:56;15.80;94.80
25440;DHT22;13365;52.208;5.488;2023-02-04T11:08:23;15.40;94.60
25440;DHT22;13365;52.208;5.488;2023-02-04T11:10:51;15.10;95.20
25440;DHT22;13365;52.208;5.488;2023-02-04T11:13:37;14.60;95.20
25440;DHT22;13365;52.208;5.488;2023-02-04T11:18:57;15.10;94.80
25440;DHT22;13365;52.208;5.488;2023-02-04T11:24:22;14.60;95.80
25440;DHT22;13365;52.208;5.488;2023-02-04T11:39:33;15.70;94.30
25440;DHT22;13365;52.208;5.488;2023-02-04T11:42:00;15.70;93.80
25440;DHT22;13365;52.208;5.488;2023-02-04T11:44:26;15.80;93.70
25440;DHT22;13365;52.208;5.488;2023-02-04T11:46:53;15.60;94.30
25440;DHT22;13365;52.208;5.488;2023-02-04T11:49:24;16.00;93.60
25440;DHT22;13365;52.208;5.488;2023-02-04T11:51:50;16.10;93.50
25440;DHT22;13365;52.208;5.488;2023-02-04T11:54:17;16.40;91.90
25440;DHT22;13365;52.208;5.488;2023-02-04T11:56:46;16.60;91.40
25440;DHT22;13365;52.208;5.488;2023-02-04T11:59:13;16.60;90.90
25440;DHT22;13365;52.208;5.488;2023-02-04T12:01:39;16.50;91.30
25440;DHT22;13365;52.208;5.488;2023-02-04T12:04:18;16.50;92.00
25440;DHT22;13365;52.208;5.488;2023-02-04T12:06:56;16.80;91.20
25440;DHT22;13365;52.208;5.488;2023-02-04T12:09:25;16.60;90.70
25440;DHT22;13365;52.208;5.488;2023-02-04T12:12:01;16.70;90.50
25440;DHT22;13365;52.208;5.488;2023-02-04T12:14:32;16.70;91.00
25440;DHT22;13365;52.208;5.488;2023-02-04T12:16:58;16.20;91.10
25440;DHT22;13365;52.208;5.488;2023-02-04T12:19:24;16.30;91.60
25440;DHT22;13365;52.208;5.488;2023-02-04T12:21:49;16.60;90.60
25440;DHT22;13365;52.208;5.488;2023-02-04T12:24:15;16.40;90.10
25440;DHT22;13365;52.208;5.488;2023-02-04T12:26:40;16.40;90.70
25440;DHT22;13365;52.208;5.488;2023-02-04T12:29:06;16.50;89.70
25440;DHT22;13365;52.208;5.488;2023-02-04T12:31:33;16.40;90.30
25440;DHT22;13365;52.208;5.488;2023-02-04T12:33:59;16.50;89.90
25440;DHT22;13365;52.208;5.488;2023-02-04T12:36:25;16.40;88.50
25440;DHT22;13365;52.208;5.488;2023-02-04T12:38:52;15.70;89.20
25440;DHT22;13365;52.208;5.488;2023-02-04T12:41:18;15.80;89.80
25440;DHT22;13365;52.208;5.488;2023-02-04T12:43:44;16.20;89.10
25440;DHT22;13365;52.208;5.488;2023-02-04T12:46:10;16.20;88.30
25440;DHT22;13365;52.208;5.488;2023-02-04T12:48:35;16.10;89.60
25440;DHT22;13365;52.208;5.488;2023-02-04T12:51:05;16.10;89.90
25440;DHT22;13365;52.208;5.488;2023-02-04T12:53:31;16.00;90.40
25440;DHT22;13365;52.208;5.488;2023-02-04T12:55:56;16.40;88.10
25440;DHT22;13365;52.208;5.488;2023-02-04T12:58:22;16.20;89.70
25440;DHT22;13365;52.208;5.488;2023-02-04T13:00:47;16.20;87.20
25440;DHT22;13365;52.208;5.488;2023-02-04T13:03:13;16.20;85.90
25440;DHT22;13365;52.208;5.488;2023-02-04T13:05:38;15.90;87.50
25440;DHT22;13365;52.208;5.488;2023-02-04T13:08:04;15.60;90.10
25440;DHT22;13365;52.208;5.488;2023-02-04T13:10:29;16.00;87.70
25440;DHT22;13365;52.208;5.488;2023-02-04T13:12:55;16.10;88.00
25440;DHT22;13365;52.208;5.488;2023-02-04T13:15:20;15.90;87.50
25440;DHT22;13365;52.208;5.488;2023-02-04T13:17:46;16.30;86.10
25440;DHT22;13365;52.208;5.488;2023-02-04T13:20:11;16.10;86.70
25440;DHT22;13365;52.208;5.488;2023-02-04T13:22:37;16.00;88.30
25440;DHT22;13365;52.208;5.488;2023-02-04T13:25:04;15.70;88.80
25440;DHT22;13365;52.208;5.488;2023-02-04T13:27:29;15.90;88.30
25440;DHT22;13365;52.208;5.488;2023-02-04T13:29:56;15.50;88.90
25440;DHT22;13365;52.208;5.488;2023-02-04T13:32:22;15.50;89.30
25440;DHT22;13365;52.208;5.488;2023-02-04T13:34:47;15.50;89.80
25440;DHT22;13365;52.208;5.488;2023-02-04T13:37:13;15.90;89.60
25440;DHT22;13365;52.208;5.488;2023-02-04T13:39:38;16.30;88.30
25440;DHT22;13365;52.208;5.488;2023-02-04T13:42:04;16.30;87.10
25440;DHT22;13365;52.208;5.488;2023-02-04T13:44:29;16.60;86.60
25440;DHT22;13365;52.208;5.488;2023-02-04T13:46:55;16.50;86.80
25440;DHT22;13365;52.208;5.488;2023-02-04T13:49:20;16.40;86.70
25440;DHT22;13365;52.208;5.488;2023-02-04T13:51:46;16.10;87.50
25440;DHT22;13365;52.208;5.488;2023-02-04T13:54:12;16.10;88.50
25440;DHT22;13365;52.208;5.488;2023-02-04T13:56:37;16.50;89.60
25440;DHT22;13365;52.208;5.488;2023-02-04T13:59:03;16.80;87.40
25440;DHT22;13365;52.208;5.488;2023-02-04T14:01:29;16.60;88.70
25440;DHT22;13365;52.208;5.488;2023-02-04T14:03:55;16.10;89.20
25440;DHT22;13365;52.208;5.488;2023-02-04T14:06:21;16.20;90.00
25440;DHT22;13365;52.208;5.488;2023-02-04T14:08:47;16.60;89.00
25440;DHT22;13365;52.208;5.488;2023-02-04T14:11:13;16.80;88.20
25440;DHT22;13365;52.208;5.488;2023-02-04T14:13:38;16.70;88.20
25440;DHT22;13365;52.208;5.488;2023-02-04T14:16:04;16.60;88.70
25440;DHT22;13365;52.208;5.488;2023-02-04T14:18:30;16.60;86.90
25440;DHT22;13365;52.208;5.488;2023-02-04T14:20:56;16.50;88.60
25440;DHT22;13365;52.208;5.488;2023-02-04T14:23:21;16.40;89.30
25440;DHT22;13365;52.208;5.488;2023-02-04T14:25:48;16.30;88.30
25440;DHT22;13365;52.208;5.488;2023-02-04T14:28:13;16.60;87.00
25440;DHT22;13365;52.208;5.488;2023-02-04T14:30:39;16.50;86.00
25440;DHT22;13365;52.208;5.488;2023-02-04T14:33:04;16.40;86.40
25440;DHT22;13365;52.208;5.488;2023-02-04T14:35:31;16.20;87.20
25440;DHT22;13365;52.208;5.488;2023-02-04T14:37:56;15.90;89.10
25440;DHT22;13365;52.208;5.488;2023-02-04T14:40:23;15.90;89.70
25440;DHT22;13365;52.208;5.488;2023-02-04T14:42:48;16.10;89.00
25440;DHT22;13365;52.208;5.488;2023-02-04T14:45:14;16.30;88.10
25440;DHT22;13365;52.208;5.488;2023-02-04T14:47:40;16.00;88.30
25440;DHT22;13365;52.208;5.488;2023-02-04T14:50:09;16.30;88.10
25440;DHT22;13365;52.208;5.488;2023-02-04T14:52:35;16.10;88.00
25440;DHT22;13365;52.208;5.488;2023-02-04T14:55:00;16.30;87.90
25440;DHT22;13365;52.208;5.488;2023-02-04T14:57:26;16.50;86.30
25440;DHT22;13365;52.208;5.488;2023-02-04T14:59:51;16.30;86.50
25440;DHT22;13365;52.208;5.488;2023-02-04T15:02:17;16.30;86.80
25440;DHT22;13365;52.208;5.488;2023-02-04T15:04:43;16.20;87.30
25440;DHT22;13365;52.208;5.488;2023-02-04T15:07:09;16.00;88.30
25440;DHT22;13365;52.208;5.488;2023-02-04T15:09:35;16.00;88.70
25440;DHT22;13365;52.208;5.488;2023-02-04T15:12:01;15.90;89.50
25440;DHT22;13365;52.208;5.488;2023-02-04T15:14:26;15.70;90.10
25440;DHT22;13365;52.208;5.488;2023-02-04T15:16:52;15.90;90.20
25440;DHT22;13365;52.208;5.488;2023-02-04T15:19:18;15.80;90.50
25440;DHT22;13365;52.208;5.488;2023-02-04T15:21:45;15.70;90.10
25440;DHT22;13365;52.208;5.488;2023-02-04T15:24:11;15.80;90.40
25440;DHT22;13365;52.208;5.488;2023-02-04T15:26:37;15.70;90.30
25440;DHT22;13365;52.208;5.488;2023-02-04T15:29:03;16.00;89.90
25440;DHT22;13365;52.208;5.488;2023-02-04T15:31:29;15.70;89.30
25440;DHT22;13365;52.208;5.488;2023-02-04T15:33:54;16.00;89.50
25440;DHT22;13365;52.208;5.488;2023-02-04T15:36:20;16.00;88.80
25440;DHT22;13365;52.208;5.488;2023-02-04T15:38:46;16.40;87.70
25440;DHT22;13365;52.208;5.488;2023-02-04T15:41:12;16.10;87.80
25440;DHT22;13365;52.208;5.488;2023-02-04T15:43:37;16.10;88.00